Time;durP1;ratioP1;P1;durP2;ratioP2;P2;SDS_P1;SDS_P2;PMS_P1;PMS_P2;Temp;Humidity;BMP_temperature;BMP_pressure;BME280_temperature;BME280_humidity;BME280_pressure;Samples;Min_cycle;Max_cycle;Signal;HPM_P1;HPM_P2
2021/12/06 00:02:14;;;;;;;36.60;19.15;;;1.50;99.90;;;;;;5053467;28;20501;-44
2021/12/06 00:04:40;;;;;;;35.55;18.35;;;1.60;99.90;;;;;;5067939;28;20079;-44
2021/12/06 00:07:12;;;;;;;37.47;19.85;;;1.60;99.90;;;;;;5050600;28;20048;-43
2021/12/06 00:09:38;;;;;;;37.80;20.40;;;1.60;99.90;;;;;;5055610;28;20094;-44
2021/12/06 00:12:05;;;;;;;44.97;26.25;;;1.60;99.90;;;;;;5054764;28;20097;-43
2021/12/06 00:14:34;;;;;;;45.58;26.90;;;1.60;99.90;;;;;;5054261;28;20057;-44
2021/12/06 00:17:06;;;;;;;43.03;22.90;;;1.60;99.90;;;;;;5068887;28;20484;-44
2021/12/06 00:19:32;;;;;;;42.17;23.45;;;1.60;99.90;;;;;;5061630;28;20096;-43
2021/12/06 00:22:01;;;;;;;48.88;26.48;;;1.60;99.90;;;;;;5068944;28;20136;-45
2021/12/06 00:24:27;;;;;;;43.85;25.35;;;1.60;99.90;;;;;;5058631;28;20539;-44
2021/12/06 00:26:54;;;;;;;43.10;24.13;;;1.60;99.90;;;;;;5048809;28;20076;-44
2021/12/06 00:29:20;;;;;;;39.05;19.05;;;1.60;99.90;;;;;;5030501;28;20487;-45
2021/12/06 00:31:47;;;;;;;38.65;21.23;;;1.60;99.90;;;;;;5048821;28;20045;-43
2021/12/06 00:34:16;;;;;;;39.33;20.63;;;1.50;99.90;;;;;;5047318;28;20060;-43
2021/12/06 00:36:52;;;;;;;38.28;20.42;;;1.60;99.90;;;;;;5048280;28;20532;-44
2021/12/06 00:39:19;;;;;;;35.90;18.73;;;1.60;99.90;;;;;;5067238;28;20040;-43
2021/12/06 00:41:45;;;;;;;34.73;18.80;;;1.60;99.90;;;;;;5050225;28;20438;-44
2021/12/06 00:44:11;;;;;;;38.17;19.58;;;1.60;99.90;;;;;;5063963;28;20048;-43
2021/12/06 00:46:38;;;;;;;35.97;19.27;;;1.60;99.90;;;;;;5048813;28;20040;-44
2021/12/06 00:49:08;;;;;;;35.90;19.50;;;1.60;99.90;;;;;;5046796;28;20037;-44
2021/12/06 00:51:36;;;;;;;36.42;19.48;;;1.60;99.90;;;;;;5047248;28;20072;-43
2021/12/06 00:54:03;;;;;;;36.42;18.02;;;1.60;99.90;;;;;;5081889;28;20064;-43
2021/12/06 00:56:28;;;;;;;37.13;18.33;;;1.60;99.90;;;;;;5047616;28;20037;-45
2021/12/06 00:58:54;;;;;;;35.08;18.90;;;1.60;99.90;;;;;;5062618;28;20431;-44
2021/12/06 01:01:20;;;;;;;39.00;20.10;;;1.60;99.90;;;;;;5062988;28;20456;-43
2021/12/06 01:03:46;;;;;;;39.88;20.00;;;1.60;99.90;;;;;;5049744;28;20116;-43
2021/12/06 01:06:13;;;;;;;39.72;20.40;;;1.60;99.90;;;;;;5052946;28;20063;-46
2021/12/06 01:08:40;;;;;;;41.72;19.73;;;1.60;99.90;;;;;;5082957;28;20451;-43
2021/12/06 01:11:09;;;;;;;35.78;19.75;;;1.60;99.90;;;;;;5066857;28;20559;-43
2021/12/06 01:13:35;;;;;;;33.25;18.00;;;1.60;99.90;;;;;;5051640;28;20120;-43
2021/12/06 01:16:02;;;;;;;32.20;18.13;;;1.60;99.90;;;;;;5050653;28;20041;-43
2021/12/06 01:18:28;;;;;;;37.75;19.27;;;1.60;99.90;;;;;;5069104;28;20437;-43
2021/12/06 01:21:21;;;;;;;39.40;21.85;;;1.70;99.90;;;;;;5062375;28;20048;-43
2021/12/06 01:26:36;;;;;;;42.97;23.90;;;1.70;99.90;;;;;;5070519;28;20052;-43
2021/12/06 01:31:55;;;;;;;41.33;23.17;;;1.70;99.90;;;;;;5048883;28;20049;-44
2021/12/06 01:39:52;;;;;;;46.55;25.48;;;1.70;99.90;;;;;;5063802;28;20040;-43
2021/12/06 01:42:18;;;;;;;42.03;23.75;;;1.70;99.90;;;;;;5048966;28;20317;-43
2021/12/06 01:44:48;;;;;;;43.88;22.85;;;1.70;99.90;;;;;;5050461;28;20208;-43
2021/12/06 01:47:17;;;;;;;46.42;23.00;;;1.70;99.90;;;;;;5032221;28;20052;-43
2021/12/06 01:50:00;;;;;;;46.53;21.95;;;1.70;99.90;;;;;;5053118;28;20076;-43
2021/12/06 01:52:30;;;;;;;45.17;24.48;;;1.70;99.90;;;;;;5070225;28;20053;-44
2021/12/06 01:54:59;;;;;;;48.35;25.42;;;1.70;99.90;;;;;;5070456;28;20036;-44
2021/12/06 01:57:29;;;;;;;49.58;26.85;;;1.70;99.90;;;;;;5069087;28;20040;-43
2021/12/06 01:59:55;;;;;;;54.63;27.10;;;1.70;99.90;;;;;;5055177;28;20049;-44
2021/12/06 02:02:26;;;;;;;48.55;25.13;;;1.70;99.90;;;;;;5084179;28;20072;-43
2021/12/06 02:04:52;;;;;;;47.42;24.27;;;1.70;99.90;;;;;;5049365;28;20033;-44
2021/12/06 02:07:23;;;;;;;47.72;22.48;;;1.70;99.90;;;;;;5053584;28;20048;-44
2021/12/06 02:09:51;;;;;;;45.25;22.25;;;1.70;99.90;;;;;;5050348;28;20483;-43
2021/12/06 02:12:19;;;;;;;43.13;20.70;;;1.70;99.90;;;;;;5053676;28;20053;-43
2021/12/06 02:17:43;;;;;;;45.63;22.88;;;1.60;99.90;;;;;;5060787;28;19921;-43
2021/12/06 02:20:15;;;;;;;43.60;22.55;;;1.70;99.90;;;;;;5049190;28;20044;-44
2021/12/06 02:22:42;;;;;;;44.67;21.75;;;1.70;99.90;;;;;;5060770;28;20084;-43
2021/12/06 02:25:15;;;;;;;43.22;20.95;;;1.70;99.90;;;;;;5057481;28;20040;-43
2021/12/06 02:27:41;;;;;;;46.95;21.48;;;1.70;99.90;;;;;;5058345;28;20211;-43
2021/12/06 02:30:08;;;;;;;45.35;22.17;;;1.60;99.90;;;;;;5081082;28;20075;-43
2021/12/06 02:32:35;;;;;;;46.63;22.83;;;1.70;99.90;;;;;;5047842;28;20174;-43
2021/12/06 02:35:06;;;;;;;44.08;21.75;;;1.60;99.90;;;;;;5044672;28;20033;-43
2021/12/06 02:37:33;;;;;;;45.33;21.35;;;1.60;99.90;;;;;;5047712;28;20041;-42
2021/12/06 02:40:04;;;;;;;52.83;21.98;;;1.60;99.90;;;;;;5059804;28;20048;-44
2021/12/06 02:42:30;;;;;;;48.60;21.83;;;1.60;99.90;;;;;;5049303;28;20470;-44
2021/12/06 02:44:55;;;;;;;45.85;21.25;;;1.60;99.90;;;;;;5049005;28;20064;-42
2021/12/06 02:47:21;;;;;;;44.65;20.63;;;1.60;99.90;;;;;;5031430;28;20037;-45
2021/12/06 02:49:48;;;;;;;46.72;21.42;;;1.60;99.90;;;;;;5047201;28;20040;-45
2021/12/06 02:52:14;;;;;;;45.40;20.93;;;1.60;99.90;;;;;;5030908;28;20526;-43
2021/12/06 02:54:42;;;;;;;49.35;22.80;;;1.60;99.90;;;;;;5061543;28;20276;-43
2021/12/06 02:59:39;;;;;;;46.67;21.33;;;1.60;99.90;;;;;;5048824;28;20124;-43
2021/12/06 03:02:15;;;;;;;51.40;21.60;;;1.60;99.90;;;;;;5048618;28;20068;-44
2021/12/06 03:04:41;;;;;;;51.63;21.50;;;1.60;99.90;;;;;;5054243;28;20116;-43
2021/12/06 03:07:08;;;;;;;53.28;22.88;;;1.60;99.90;;;;;;5059941;28;20036;-43
2021/12/06 03:09:38;;;;;;;52.22;22.35;;;1.60;99.90;;;;;;5054065;28;20098;-44
2021/12/06 03:12:12;;;;;;;50.45;22.30;;;1.60;99.90;;;;;;5041615;28;20044;-43
2021/12/06 03:14:44;;;;;;;50.88;22.25;;;1.60;99.90;;;;;;5059637;28;20427;-44
2021/12/06 03:17:12;;;;;;;53.72;23.42;;;1.60;99.90;;;;;;5048677;28;20044;-43
2021/12/06 03:19:39;;;;;;;57.88;21.73;;;1.60;99.90;;;;;;5059315;28;20064;-44
2021/12/06 03:22:08;;;;;;;57.08;24.30;;;1.60;99.90;;;;;;5048762;28;20040;-44
2021/12/06 03:24:34;;;;;;;54.33;23.63;;;1.60;99.90;;;;;;5046656;28;20140;-44
2021/12/06 03:27:01;;;;;;;57.47;22.88;;;1.60;99.90;;;;;;5063636;28;20102;-44
2021/12/06 03:29:28;;;;;;;54.63;21.70;;;1.60;99.90;;;;;;5048031;28;20599;-44
2021/12/06 03:31:54;;;;;;;54.17;22.92;;;1.60;99.90;;;;;;5046733;28;20053;-44
2021/12/06 03:34:20;;;;;;;52.80;22.55;;;1.60;99.90;;;;;;5047105;28;20048;-44
2021/12/06 03:36:47;;;;;;;51.92;22.75;;;1.60;99.90;;;;;;5052560;28;20346;-44
2021/12/06 03:39:26;;;;;;;54.22;22.73;;;1.60;99.90;;;;;;5067909;28;20436;-43
2021/12/06 03:41:57;;;;;;;58.63;22.98;;;1.60;99.90;;;;;;5058238;28;20329;-44
2021/12/06 03:44:23;;;;;;;54.60;23.08;;;1.60;99.90;;;;;;5080325;28;20152;-45
2021/12/06 03:46:52;;;;;;;57.40;23.08;;;1.60;99.90;;;;;;5053235;28;20048;-44
2021/12/06 03:49:18;;;;;;;50.72;22.40;;;1.60;99.90;;;;;;5049072;28;20036;-49
2021/12/06 03:51:46;;;;;;;54.95;22.77;;;1.60;99.90;;;;;;5068214;28;20445;-43
2021/12/06 03:54:19;;;;;;;57.15;22.80;;;1.60;99.90;;;;;;5054437;28;20040;-44
2021/12/06 03:56:45;;;;;;;54.05;21.67;;;1.70;99.90;;;;;;5066728;28;20138;-44
2021/12/06 03:59:11;;;;;;;54.72;22.75;;;1.60;99.90;;;;;;5065819;28;20040;-44
2021/12/06 04:01:38;;;;;;;57.25;24.65;;;1.60;99.90;;;;;;5041807;28;20095;-44
2021/12/06 04:04:05;;;;;;;58.25;24.00;;;1.70;99.90;;;;;;5063944;28;20435;-45
2021/12/06 04:06:31;;;;;;;57.30;23.48;;;1.70;99.90;;;;;;5066514;28;20094;-44
2021/12/06 04:08:57;;;;;;;64.13;23.43;;;1.60;99.90;;;;;;5051419;28;20048;-44
2021/12/06 04:11:24;;;;;;;62.40;22.63;;;1.70;99.90;;;;;;5056017;28;20071;-44
2021/12/06 04:13:50;;;;;;;55.60;24.40;;;1.70;99.90;;;;;;5067768;28;20409;-44
2021/12/06 04:16:17;;;;;;;61.83;24.33;;;1.70;99.90;;;;;;5066488;28;20109;-47
2021/12/06 04:18:45;;;;;;;60.57;23.80;;;1.70;99.90;;;;;;5060241;28;20127;-45
2021/12/06 04:21:13;;;;;;;56.38;22.75;;;1.70;99.90;;;;;;5057319;28;20371;-44
2021/12/06 04:23:39;;;;;;;62.88;23.92;;;1.70;99.90;;;;;;5055070;28;20037;-44
2021/12/06 04:26:06;;;;;;;63.80;24.08;;;1.70;99.90;;;;;;5046826;28;20434;-44
2021/12/06 04:28:35;;;;;;;59.40;24.42;;;1.70;99.90;;;;;;5053447;28;20050;-45
2021/12/06 04:31:02;;;;;;;52.88;22.85;;;1.70;99.90;;;;;;5047426;28;20056;-45
2021/12/06 04:33:28;;;;;;;66.82;24.45;;;1.70;99.90;;;;;;5050758;28;20045;-44
2021/12/06 04:35:54;;;;;;;53.55;23.27;;;1.70;99.90;;;;;;5045452;28;20056;-44
2021/12/06 04:38:21;;;;;;;58.97;23.30;;;1.70;99.90;;;;;;5055312;28;20040;-46
2021/12/06 04:40:48;;;;;;;57.38;23.48;;;1.80;99.90;;;;;;5052679;28;20045;-46
2021/12/06 04:43:15;;;;;;;56.47;23.45;;;1.80;99.90;;;;;;5066034;28;20044;-46
2021/12/06 04:45:41;;;;;;;66.27;26.70;;;1.80;99.90;;;;;;5052644;28;20116;-46
2021/12/06 04:48:09;;;;;;;69.82;25.98;;;1.80;99.90;;;;;;5052952;28;20477;-44
2021/12/06 04:50:36;;;;;;;63.70;25.35;;;1.80;99.90;;;;;;5052217;28;20060;-44
2021/12/06 04:53:04;;;;;;;;;;;1.80;99.90;;;;;;5056962;28;20048;-45
2021/12/06 04:55:37;;;;;;;60.90;24.40;;;1.80;99.90;;;;;;5066115;28;20338;-45
2021/12/06 04:58:04;;;;;;;65.72;26.83;;;1.80;99.90;;;;;;5051065;28;20080;-45
2021/12/06 05:00:46;;;;;;;71.70;27.77;;;1.80;99.90;;;;;;5052497;28;20053;-43
2021/12/06 05:03:12;;;;;;;57.47;25.23;;;1.80;99.90;;;;;;5060392;28;20036;-44
2021/12/06 05:05:49;;;;;;;65.28;28.40;;;1.80;99.90;;;;;;5060535;28;20123;-44
2021/12/06 05:08:17;;;;;;;65.20;27.08;;;1.80;99.90;;;;;;5061261;28;20477;-45
2021/12/06 05:10:45;;;;;;;61.25;25.02;;;1.80;99.90;;;;;;5063119;28;20064;-44
2021/12/06 05:13:12;;;;;;;60.28;24.40;;;1.80;99.90;;;;;;5056713;28;20033;-45
2021/12/06 05:15:39;;;;;;;59.65;23.33;;;1.80;99.90;;;;;;5052456;28;20751;-44
2021/12/06 05:18:05;;;;;;;72.78;25.75;;;1.80;99.90;;;;;;5055055;28;20075;-44
2021/12/06 05:20:32;;;;;;;65.22;25.98;;;1.80;99.90;;;;;;5067520;28;20053;-46
2021/12/06 05:22:58;;;;;;;56.80;23.58;;;1.80;99.90;;;;;;5055308;28;20037;-44
2021/12/06 05:25:25;;;;;;;67.28;24.90;;;1.80;99.90;;;;;;5053729;28;20037;-46
2021/12/06 05:27:52;;;;;;;69.15;25.65;;;1.80;99.90;;;;;;5066406;28;20037;-45
2021/12/06 05:30:22;;;;;;;64.47;25.42;;;1.80;99.90;;;;;;5053209;28;20041;-44
2021/12/06 05:32:48;;;;;;;61.67;25.05;;;1.80;99.90;;;;;;5069354;28;20050;-44
2021/12/06 05:35:15;;;;;;;64.67;24.40;;;1.80;99.90;;;;;;5051665;28;20610;-43
2021/12/06 05:37:47;;;;;;;70.53;25.08;;;1.80;99.90;;;;;;5050291;28;20377;-44
2021/12/06 05:40:21;;;;;;;63.30;25.05;;;1.80;99.90;;;;;;5067904;28;20525;-45
2021/12/06 05:42:47;;;;;;;66.55;25.77;;;1.80;99.90;;;;;;5051740;28;20233;-44
2021/12/06 05:45:18;;;;;;;61.97;23.90;;;1.80;99.90;;;;;;5063044;28;20458;-46
2021/12/06 05:47:44;;;;;;;69.30;24.95;;;1.80;99.90;;;;;;5083350;28;20036;-44
2021/12/06 05:50:10;;;;;;;62.83;23.30;;;1.80;99.90;;;;;;5048734;28;20476;-44
2021/12/06 05:52:36;;;;;;;63.33;23.48;;;1.80;99.90;;;;;;5048808;28;20052;-45
2021/12/06 05:55:05;;;;;;;66.68;24.08;;;1.80;99.90;;;;;;5050008;28;20065;-43
2021/12/06 05:57:31;;;;;;;55.80;23.35;;;1.80;99.90;;;;;;5063135;28;20037;-44
2021/12/06 05:59:57;;;;;;;66.90;24.40;;;1.90;99.90;;;;;;5050505;28;20041;-44
2021/12/06 06:02:23;;;;;;;63.13;24.33;;;1.80;99.90;;;;;;5048854;28;20060;-44
2021/12/06 06:04:49;;;;;;;63.28;24.30;;;1.80;99.90;;;;;;5050181;28;20047;-45
2021/12/06 06:07:15;;;;;;;61.10;24.27;;;1.80;99.90;;;;;;5051143;28;20469;-44
2021/12/06 06:09:42;;;;;;;61.08;23.88;;;1.90;99.90;;;;;;5069966;28;20052;-43
2021/12/06 06:12:08;;;;;;;55.35;21.92;;;1.80;99.90;;;;;;5061362;28;20051;-44
2021/12/06 06:14:33;;;;;;;56.20;22.30;;;1.90;99.90;;;;;;5044065;28;20116;-44
2021/12/06 06:17:08;;;;;;;63.95;25.08;;;1.80;99.90;;;;;;5041900;28;20049;-44
2021/12/06 06:19:36;;;;;;;60.67;23.90;;;1.80;99.90;;;;;;5061035;28;20049;-43
2021/12/06 06:22:03;;;;;;;67.28;25.40;;;1.90;99.90;;;;;;5068949;28;20048;-43
2021/12/06 06:24:29;;;;;;;63.30;23.60;;;1.80;99.90;;;;;;5061517;28;20500;-44
2021/12/06 06:26:55;;;;;;;62.97;23.80;;;1.80;99.90;;;;;;5068414;28;20445;-44
2021/12/06 06:29:21;;;;;;;56.15;22.45;;;1.80;99.90;;;;;;5062836;28;20055;-44
2021/12/06 06:31:48;;;;;;;60.08;23.75;;;1.80;99.90;;;;;;5039660;28;20614;-43
2021/12/06 06:34:14;;;;;;;59.13;23.05;;;1.80;99.90;;;;;;5060915;28;20146;-44
2021/12/06 06:36:40;;;;;;;62.50;23.77;;;1.80;99.90;;;;;;5047073;28;20467;-44
2021/12/06 06:39:08;;;;;;;63.05;23.48;;;1.80;99.90;;;;;;5041330;28;20036;-44
2021/12/06 06:41:35;;;;;;;57.88;22.15;;;1.80;99.90;;;;;;5066326;28;20056;-44
2021/12/06 06:44:02;;;;;;;56.53;22.27;;;1.80;99.90;;;;;;5067915;28;20040;-43
2021/12/06 06:46:27;;;;;;;54.55;21.73;;;1.80;99.90;;;;;;5067877;28;20059;-43
2021/12/06 06:48:54;;;;;;;50.83;21.25;;;1.80;99.90;;;;;;5066476;28;20049;-43
2021/12/06 06:51:20;;;;;;;54.33;22.00;;;1.80;99.90;;;;;;5067516;28;20170;-43
2021/12/06 06:53:46;;;;;;;55.33;22.60;;;1.80;99.90;;;;;;5068020;28;20115;-44
2021/12/06 06:56:14;;;;;;;61.00;23.65;;;1.70;99.90;;;;;;5045678;28;20421;-44
2021/12/06 06:58:40;;;;;;;55.38;22.38;;;1.80;99.90;;;;;;5055884;28;20052;-44
2021/12/06 07:01:06;;;;;;;62.92;23.77;;;1.70;99.90;;;;;;5059545;28;20041;-44
2021/12/06 07:03:32;;;;;;;61.05;22.98;;;1.70;99.90;;;;;;5050339;28;20063;-44
2021/12/06 07:05:59;;;;;;;53.95;22.15;;;1.70;99.90;;;;;;5053276;28;20037;-44
2021/12/06 07:08:27;;;;;;;59.10;22.02;;;2.60;99.90;;;;;;5085094;28;20040;-44
2021/12/06 07:10:54;;;;;;;53.15;20.27;;;1.80;99.90;;;;;;5059467;28;20037;-43
2021/12/06 07:13:21;;;;;;;57.13;21.60;;;1.80;99.90;;;;;;5034113;28;20616;-44
2021/12/06 07:15:49;;;;;;;61.70;22.45;;;1.80;99.90;;;;;;5067671;28;20217;-44
2021/12/06 07:18:15;;;;;;;55.38;21.13;;;1.80;99.90;;;;;;5059782;28;20497;-44
2021/12/06 07:20:41;;;;;;;50.85;21.23;;;1.80;99.90;;;;;;5051589;28;20067;-45
2021/12/06 07:23:07;;;;;;;50.25;20.92;;;1.80;99.90;;;;;;5050626;28;20056;-45
2021/12/06 07:25:34;;;;;;;54.25;21.42;;;1.80;99.90;;;;;;5048543;28;20036;-46
2021/12/06 07:28:04;;;;;;;51.85;21.75;;;1.80;99.90;;;;;;5048791;28;20470;-45
2021/12/06 07:30:30;;;;;;;54.13;22.33;;;1.80;99.90;;;;;;5047034;28;20052;-44
2021/12/06 07:32:56;;;;;;;55.90;21.77;;;1.80;99.90;;;;;;5047820;28;20574;-44
2021/12/06 07:35:22;;;;;;;56.65;21.55;;;1.80;99.90;;;;;;5049164;28;20121;-43
2021/12/06 07:37:49;;;;;;;55.78;22.70;;;1.80;99.90;;;;;;5049016;28;20513;-45
2021/12/06 07:40:17;;;;;;;55.20;21.95;;;1.70;99.90;;;;;;5047025;28;20057;-45
2021/12/06 07:42:43;;;;;;;;;;;1.70;99.90;;;;;;5056290;28;20375;-45
2021/12/06 07:45:11;;;;;;;54.35;21.02;;;1.80;99.90;;;;;;5049205;28;19916;-46
2021/12/06 07:47:38;;;;;;;63.65;23.95;;;1.80;99.90;;;;;;5047427;28;20047;-45
2021/12/06 07:50:13;;;;;;;57.28;21.85;;;1.70;99.90;;;;;;5037629;28;20049;-44
2021/12/06 07:52:40;;;;;;;59.60;22.95;;;1.80;99.90;;;;;;5054146;28;20053;-44
2021/12/06 07:55:08;;;;;;;64.68;24.40;;;1.80;99.90;;;;;;5067524;28;20339;-45
2021/12/06 07:57:34;;;;;;;59.53;24.50;;;1.80;99.90;;;;;;5052882;28;20144;-45
2021/12/06 08:00:00;;;;;;;59.97;23.17;;;1.80;99.90;;;;;;5039824;28;20052;-45
2021/12/06 08:02:26;;;;;;;63.03;24.20;;;1.80;99.90;;;;;;5034860;28;20136;-45
2021/12/06 08:05:29;;;;;;;70.22;24.52;;;1.80;99.90;;;;;;5057053;28;20114;-44
2021/12/06 08:07:41;;;;;;;67.68;25.35;;;1.80;99.90;;;;;;5054894;28;20398;-45
2021/12/06 08:10:07;;;;;;;66.68;24.95;;;1.80;99.90;;;;;;5069963;28;20037;-43
2021/12/06 08:12:33;;;;;;;62.53;25.52;;;1.80;99.90;;;;;;5062260;28;20060;-45
2021/12/06 08:14:59;;;;;;;66.20;23.13;;;1.80;99.90;;;;;;5069968;28;20044;-44
2021/12/06 08:17:25;;;;;;;61.75;24.33;;;1.80;99.90;;;;;;5052579;28;20041;-44
2021/12/06 08:19:51;;;;;;;68.80;24.13;;;1.80;99.90;;;;;;5057831;28;20041;-45
2021/12/06 08:22:17;;;;;;;71.03;25.77;;;1.80;99.90;;;;;;5052766;28;20158;-45
2021/12/06 08:24:43;;;;;;;65.50;25.17;;;1.90;99.90;;;;;;5070248;28;20044;-44
2021/12/06 08:27:09;;;;;;;70.20;26.10;;;1.90;99.90;;;;;;5034468;28;20053;-45
2021/12/06 08:29:36;;;;;;;76.93;26.17;;;1.80;99.90;;;;;;5069170;28;20046;-45
2021/12/06 08:32:03;;;;;;;66.68;25.95;;;1.90;99.90;;;;;;5071830;28;20072;-45
2021/12/06 08:34:29;;;;;;;65.82;24.90;;;1.90;99.90;;;;;;5042071;28;20087;-45
2021/12/06 08:36:55;;;;;;;72.70;25.25;;;1.90;99.90;;;;;;5035753;28;20142;-44
2021/12/06 08:39:21;;;;;;;69.70;25.10;;;1.90;99.90;;;;;;5056402;28;20041;-44
2021/12/06 08:41:47;;;;;;;75.82;25.70;;;1.90;99.90;;;;;;5069889;28;20049;-44
2021/12/06 08:44:14;;;;;;;66.88;24.42;;;1.90;99.90;;;;;;5072291;28;20415;-45
2021/12/06 08:46:40;;;;;;;74.57;25.83;;;1.90;99.90;;;;;;5054312;28;20624;-44
2021/12/06 08:49:09;;;;;;;76.63;25.48;;;1.90;99.90;;;;;;5070489;28;20075;-45
2021/12/06 08:51:48;;;;;;;75.10;25.67;;;1.90;99.90;;;;;;5063005;28;20063;-45
2021/12/06 08:54:18;;;;;;;71.43;26.20;;;1.90;99.90;;;;;;5059323;28;20079;-44
2021/12/06 08:56:45;;;;;;;61.65;22.98;;;2.00;99.90;;;;;;5093267;28;20040;-45
2021/12/06 08:59:12;;;;;;;70.78;24.88;;;2.00;99.90;;;;;;5067979;28;20044;-45
2021/12/06 09:01:38;;;;;;;64.50;25.67;;;2.00;99.90;;;;;;5059957;28;20059;-45
2021/12/06 09:04:10;;;;;;;71.65;25.33;;;1.90;99.90;;;;;;5061445;28;20110;-45
2021/12/06 09:06:38;;;;;;;68.13;24.38;;;2.00;99.90;;;;;;5064321;28;20604;-46
2021/12/06 09:09:07;;;;;;;68.95;27.27;;;2.00;99.90;;;;;;5066523;28;20044;-45
2021/12/06 09:11:35;;;;;;;74.95;25.70;;;2.00;99.90;;;;;;5061803;28;20040;-45
2021/12/06 09:14:01;;;;;;;75.22;24.58;;;2.00;99.90;;;;;;5070394;28;20382;-46
2021/12/06 09:16:28;;;;;;;71.80;27.38;;;2.10;99.90;;;;;;5045000;28;20072;-45
2021/12/06 09:18:55;;;;;;;67.10;25.20;;;2.10;99.90;;;;;;5063134;28;20040;-45
2021/12/06 09:21:22;;;;;;;68.53;24.85;;;2.10;99.90;;;;;;5058731;28;20079;-45
2021/12/06 09:23:50;;;;;;;65.67;24.67;;;2.20;99.90;;;;;;5056942;28;20384;-46
2021/12/06 09:26:16;;;;;;;60.53;24.63;;;2.20;99.90;;;;;;5033280;28;20088;-45
2021/12/06 09:28:43;;;;;;;62.90;24.23;;;2.20;99.90;;;;;;5051391;28;20380;-46
2021/12/06 09:31:10;;;;;;;67.47;23.85;;;2.20;99.90;;;;;;5067161;28;20037;-45
2021/12/06 09:33:38;;;;;;;65.30;24.83;;;2.30;99.90;;;;;;5067162;28;20120;-46
2021/12/06 09:36:05;;;;;;;60.80;23.85;;;2.30;99.90;;;;;;5050128;28;20037;-45
2021/12/06 09:38:39;;;;;;;55.40;21.77;;;2.30;99.90;;;;;;5069268;28;20044;-45
2021/12/06 09:41:14;;;;;;;54.22;21.40;;;2.30;99.90;;;;;;5052915;28;20093;-45
2021/12/06 09:43:42;;;;;;;50.17;20.90;;;2.40;99.90;;;;;;5060257;28;20468;-46
2021/12/06 09:46:10;;;;;;;48.28;19.40;;;2.40;99.90;;;;;;5048729;28;20111;-46
2021/12/06 09:48:39;;;;;;;47.80;20.60;;;2.40;99.90;;;;;;5066004;28;20045;-47
2021/12/06 09:51:10;;;;;;;50.92;20.88;;;2.40;99.90;;;;;;5049145;28;20187;-45
2021/12/06 09:53:38;;;;;;;53.17;20.83;;;2.50;99.90;;;;;;5059426;28;20040;-45
2021/12/06 09:56:08;;;;;;;52.80;20.20;;;2.50;99.90;;;;;;5054423;28;20094;-45
2021/12/06 09:58:36;;;;;;;43.05;20.70;;;2.60;99.90;;;;;;5049048;28;20044;-45
2021/12/06 10:01:15;;;;;;;46.85;19.15;;;2.50;99.90;;;;;;5050855;28;20055;-45
2021/12/06 10:03:44;;;;;;;47.58;20.58;;;2.60;99.90;;;;;;5045571;28;20045;-46
2021/12/06 10:06:11;;;;;;;47.72;20.13;;;2.60;99.90;;;;;;5054141;28;20113;-45
2021/12/06 10:08:39;;;;;;;44.80;18.48;;;2.60;99.90;;;;;;5049041;28;20075;-45
2021/12/06 10:11:07;;;;;;;43.17;17.80;;;2.50;99.90;;;;;;5069163;28;20136;-45
2021/12/06 10:13:34;;;;;;;37.92;16.63;;;2.50;99.90;;;;;;5055280;28;20541;-46
2021/12/06 10:16:01;;;;;;;38.50;17.90;;;2.50;99.90;;;;;;5048832;28;20060;-46
2021/12/06 10:18:27;;;;;;;44.20;19.52;;;2.50;99.90;;;;;;5053879;28;20068;-46
2021/12/06 10:20:53;;;;;;;39.90;16.75;;;2.50;99.90;;;;;;5049081;28;20041;-44
2021/12/06 10:23:20;;;;;;;43.88;18.45;;;2.60;99.90;;;;;;5071105;28;20205;-46
2021/12/06 10:25:50;;;;;;;42.47;18.38;;;2.50;99.90;;;;;;5065591;28;20055;-44
2021/12/06 10:28:19;;;;;;;38.05;17.08;;;2.50;99.90;;;;;;5056195;28;20040;-48
2021/12/06 10:30:52;;;;;;;38.75;16.15;;;2.50;99.90;;;;;;5030082;28;20056;-45
2021/12/06 10:33:25;;;;;;;38.80;17.33;;;2.40;99.90;;;;;;5050999;28;20392;-46
2021/12/06 10:35:55;;;;;;;36.90;16.42;;;2.40;99.90;;;;;;5068532;28;20389;-45
2021/12/06 10:38:24;;;;;;;39.05;17.67;;;2.40;99.90;;;;;;5064106;28;20052;-45
2021/12/06 10:40:55;;;;;;;35.08;16.30;;;2.40;99.90;;;;;;5049915;28;20513;-45
2021/12/06 10:43:21;;;;;;;35.72;16.13;;;2.40;99.90;;;;;;5032391;28;20084;-45
2021/12/06 10:45:48;;;;;;;37.33;16.92;;;2.40;99.90;;;;;;5048634;28;20501;-44
2021/12/06 10:48:21;;;;;;;39.03;16.65;;;2.40;99.90;;;;;;5070173;28;20394;-45
2021/12/06 10:50:52;;;;;;;38.13;16.48;;;2.40;99.90;;;;;;5044657;28;20048;-45
2021/12/06 10:53:26;;;;;;;40.05;17.83;;;2.40;99.90;;;;;;5061342;28;20051;-45
2021/12/06 10:55:55;;;;;;;37.75;16.27;;;2.30;99.90;;;;;;5055056;28;20055;-46
2021/12/06 10:58:25;;;;;;;38.80;17.42;;;2.30;99.90;;;;;;5049306;28;20044;-46
2021/12/06 11:00:53;;;;;;;36.03;15.40;;;2.30;99.90;;;;;;5056246;28;20090;-44
2021/12/06 11:03:32;;;;;;;40.22;17.45;;;2.30;99.90;;;;;;5069573;28;20063;-45
2021/12/06 11:06:03;;;;;;;35.72;14.82;;;2.30;99.90;;;;;;5058573;28;20049;-45
2021/12/06 11:08:35;;;;;;;34.90;14.80;;;2.30;99.90;;;;;;5049881;28;20064;-45
2021/12/06 11:11:17;;;;;;;42.97;17.27;;;2.30;99.90;;;;;;5048132;28;20051;-46
2021/12/06 11:13:46;;;;;;;41.55;15.95;;;2.30;99.90;;;;;;5053342;28;20497;-46
2021/12/06 11:16:16;;;;;;;38.42;16.35;;;2.30;99.90;;;;;;5048084;28;20702;-46
2021/12/06 11:18:50;;;;;;;36.13;15.50;;;2.30;99.90;;;;;;5071374;28;20047;-46
2021/12/06 11:21:24;;;;;;;40.90;17.45;;;2.40;99.90;;;;;;5059126;28;20072;-45
2021/12/06 11:24:05;;;;;;;35.60;15.70;;;2.30;99.90;;;;;;5054791;28;20124;-46
2021/12/06 11:26:33;;;;;;;40.03;16.35;;;2.40;99.90;;;;;;5049403;28;20514;-45
2021/12/06 11:29:09;;;;;;;37.95;16.77;;;2.30;99.90;;;;;;5048286;28;20174;-45
2021/12/06 11:31:37;;;;;;;36.47;16.17;;;2.30;99.90;;;;;;5049514;28;20098;-46
2021/12/06 11:34:05;;;;;;;34.33;15.48;;;2.40;99.90;;;;;;5049600;28;20607;-46
2021/12/06 11:36:31;;;;;;;38.92;15.57;;;2.40;99.90;;;;;;5047908;28;20087;-45
2021/12/06 11:39:16;;;;;;;41.30;17.02;;;2.40;99.90;;;;;;5047943;28;20538;-47
2021/12/06 11:41:49;;;;;;;39.15;17.85;;;2.40;99.90;;;;;;5048611;28;20128;-45
2021/12/06 11:44:17;;;;;;;37.88;16.92;;;2.40;99.90;;;;;;5047622;28;20355;-45
2021/12/06 11:46:45;;;;;;;44.42;18.35;;;2.40;99.90;;;;;;5064428;28;20044;-45
2021/12/06 11:49:26;;;;;;;42.13;18.00;;;2.50;99.90;;;;;;5047731;28;20123;-45
2021/12/06 11:51:54;;;;;;;45.58;18.83;;;2.50;99.90;;;;;;5056419;28;20055;-46
2021/12/06 11:54:21;;;;;;;45.83;20.52;;;2.50;99.90;;;;;;5053788;28;20559;-45
2021/12/06 11:56:48;;;;;;;45.15;19.00;;;2.60;99.90;;;;;;5047460;28;20045;-47
2021/12/06 11:59:16;;;;;;;46.63;19.63;;;2.60;99.90;;;;;;5050082;28;20449;-48
2021/12/06 12:01:52;;;;;;;46.00;19.02;;;2.60;99.90;;;;;;5047798;28;20781;-45
2021/12/06 12:04:22;;;;;;;38.92;17.77;;;2.60;99.90;;;;;;5047529;28;20048;-45
2021/12/06 12:07:00;;;;;;;41.05;16.73;;;2.70;99.90;;;;;;5053123;28;20057;-46
2021/12/06 12:09:32;;;;;;;37.50;16.48;;;2.70;99.90;;;;;;5065756;28;20044;-45
2021/12/06 12:12:12;;;;;;;39.50;16.58;;;2.70;99.90;;;;;;5069384;28;20035;-48
2021/12/06 12:14:42;;;;;;;40.00;15.35;;;2.70;99.90;;;;;;5047980;28;20079;-48
2021/12/06 12:17:19;;;;;;;37.17;17.67;;;2.70;99.90;;;;;;5047811;28;20106;-48
2021/12/06 12:19:48;;;;;;;39.45;16.92;;;2.70;99.90;;;;;;5053772;28;20041;-47
2021/12/06 12:22:18;;;;;;;32.92;14.35;;;2.70;99.90;;;;;;5049030;28;20045;-46
2021/12/06 12:24:49;;;;;;;31.05;14.30;;;2.70;99.90;;;;;;5048632;28;20045;-46
2021/12/06 12:29:45;;;;;;;32.20;13.82;;;2.70;99.90;;;;;;5052895;28;20052;-46
2021/12/06 12:32:11;;;;;;;25.85;12.88;;;2.70;99.90;;;;;;5068236;28;20478;-45
2021/12/06 12:34:41;;;;;;;28.13;13.43;;;2.70;99.90;;;;;;5066771;28;20041;-48
2021/12/06 12:37:10;;;;;;;27.67;14.50;;;2.80;99.90;;;;;;5047654;28;20533;-45
2021/12/06 12:39:36;;;;;;;31.67;15.23;;;2.70;99.90;;;;;;5067636;28;20049;-45
2021/12/06 12:42:07;;;;;;;31.15;15.18;;;2.80;99.90;;;;;;5068887;28;20041;-49
2021/12/06 12:44:44;;;;;;;29.30;14.10;;;3.30;99.90;;;;;;5068241;28;20045;-45
2021/12/06 12:47:17;;;;;;;30.95;15.00;;;2.80;99.90;;;;;;5067125;28;20127;-46
2021/12/06 12:49:46;;;;;;;30.05;14.57;;;2.80;99.90;;;;;;5054393;28;20052;-46
2021/12/06 12:52:12;;;;;;;28.17;13.25;;;2.80;99.90;;;;;;5062079;28;20053;-48
2021/12/06 12:54:44;;;;;;;32.40;14.53;;;2.90;99.90;;;;;;5069468;28;20552;-50
2021/12/06 12:57:14;;;;;;;34.83;14.45;;;2.90;99.90;;;;;;5054311;28;20298;-48
2021/12/06 12:59:57;;;;;;;31.88;14.38;;;2.90;99.90;;;;;;5066100;28;20107;-46
2021/12/06 13:02:33;;;;;;;36.00;15.35;;;2.90;99.90;;;;;;5069253;28;20127;-47
2021/12/06 13:04:59;;;;;;;30.55;14.75;;;2.90;99.90;;;;;;5072254;28;20444;-46